PWSweather.com
Personal Weather Stations
Station Observations
UISISLE1
Newport, Isle ofWight, ISLE OF WIGHT PO30 2JX

NewportIsle ofWight, ISLE OF WIGHT PO30 2JX

Lat: 50.72, Lon: -1.27

Elevation: 45

Station Type: Davis Vantage Pro Plus

http://www.isleofwightweather.co.uk

High Low Average
Temperature 52.7°F11.5°F 31.4°F-0.3°F 45.8°F7.7°F
Dew Point 49.8°F9.9°F 28.8°F-1.8°F 43.5°F6.4°F
Winds 8.3 mph SW13.4 mph SW Calm Calm 3.3 mph 5.3 mph
Wind Gusts 16.0 mph25.7 mph -- 5.6 mph9.0 mph
Humidity 95% 88% 92%
Pressure 30.38 in1028.80 in 30.15 in1021.00 in -
Precipitation 0.06 in1.50 in - -
Hour Temp Dew Point Humidity Winds Wind Gusts Pressure Precip Precip Rate Daily Precip Total
12:00 AM 31.6°F-0.2°C 29.0°F-1.7°C 90% Calm Calm -- 30.38 in1028.8 mb - 0.00 in0.0 mm 0.00 in0.0 mm
12:15 AM 31.5°F-0.3°C 28.9°F-1.7°C 90% Calm Calm -- 30.37 in1028.4 mb - 0.00 in0.0 mm 0.00 in0.0 mm
12:30 AM 31.4°F-0.3°C 28.8°F-1.8°C 90% Calm Calm 1.0 mph1.6 kmh 30.37 in1028.4 mb - 0.00 in0.0 mm 0.00 in0.0 mm
12:45 AM 31.6°F-0.2°C 29.3°F-1.5°C 91% Calm Calm -- 30.36 in1028.1 mb - 0.00 in0.0 mm 0.00 in0.0 mm
01:00 AM 32.1°F0.1°C 30.0°F-1.1°C 92% Calm Calm -- 30.36 in1028.1 mb - 0.00 in0.0 mm 0.00 in0.0 mm
01:15 AM 32.5°F0.3°C 30.4°F-0.9°C 92% Calm Calm -- 30.36 in1028.1 mb - 0.00 in0.0 mm 0.00 in0.0 mm
01:30 AM 32.7°F0.4°C 30.6°F-0.8°C 92% Calm Calm -- 30.35 in1027.8 mb - 0.00 in0.0 mm 0.00 in0.0 mm
01:45 AM 33.1°F0.6°C 31.3°F-0.4°C 93% Calm Calm -- 30.35 in1027.8 mb - 0.00 in0.0 mm 0.00 in0.0 mm
02:00 AM 33.5°F0.8°C 31.7°F-0.2°C 93% Calm Calm -- 30.35 in1027.8 mb - 0.00 in0.0 mm 0.00 in0.0 mm
02:15 AM 33.9°F1.1°C 32.1°F0.1°C 93% 0.1 mph NE0.2 kmh NE -- 30.34 in1027.4 mb - 0.00 in0.0 mm 0.00 in0.0 mm
02:30 AM 34.0°F1.1°C 32.2°F0.1°C 93% Calm Calm -- 30.34 in1027.4 mb - 0.00 in0.0 mm 0.00 in0.0 mm
02:45 AM 34.2°F1.2°C 32.4°F0.2°C 93% 0.2 mph NE0.3 kmh NE 1.0 mph1.6 kmh 30.34 in1027.4 mb - 0.00 in0.0 mm 0.00 in0.0 mm
03:00 AM 34.9°F1.6°C 33.3°F0.7°C 94% Calm Calm -- 30.34 in1027.4 mb - 0.00 in0.0 mm 0.00 in0.0 mm
03:15 AM 35.9°F2.2°C 34.4°F1.3°C 94% Calm Calm -- 30.34 in1027.4 mb - 0.00 in0.0 mm 0.00 in0.0 mm
03:30 AM 36.8°F2.7°C 35.2°F1.8°C 94% 1.9 mph SW3.1 kmh SW 2.0 mph3.2 kmh 30.33 in1027.1 mb - 0.00 in0.0 mm 0.00 in0.0 mm
03:45 AM 37.6°F3.1°C 36.3°F2.4°C 95% 3.1 mph SW5.0 kmh SW 4.0 mph6.4 kmh 30.33 in1027.1 mb - 0.00 in0.0 mm 0.00 in0.0 mm
04:00 AM 38.7°F3.7°C 37.4°F3.0°C 95% 2.6 mph SW4.2 kmh SW 4.0 mph6.4 kmh 30.32 in1026.8 mb - 0.00 in0.0 mm 0.00 in0.0 mm
04:15 AM 39.4°F4.1°C 38.1°F3.4°C 95% 0.7 mph WSW1.1 kmh WSW 2.0 mph3.2 kmh 30.32 in1026.8 mb - 0.00 in0.0 mm 0.00 in0.0 mm
04:30 AM 40.0°F4.4°C 38.7°F3.7°C 95% 2.3 mph WSW3.7 kmh WSW 4.0 mph6.4 kmh 30.32 in1026.8 mb - 0.00 in0.0 mm 0.00 in0.0 mm
04:45 AM 40.6°F4.8°C 39.3°F4.1°C 95% 1.2 mph W1.9 kmh W 2.1 mph3.4 kmh 30.32 in1026.8 mb - 0.00 in0.0 mm 0.00 in0.0 mm
05:00 AM 41.1°F5.1°C 39.8°F4.3°C 95% 0.2 mph W0.3 kmh W 1.0 mph1.6 kmh 30.32 in1026.8 mb - 0.00 in0.0 mm 0.00 in0.0 mm
05:15 AM 41.5°F5.3°C 40.2°F4.6°C 95% Calm Calm -- 30.32 in1026.8 mb - 0.00 in0.0 mm 0.00 in0.0 mm
05:30 AM 41.8°F5.4°C 40.4°F4.7°C 95% 1.5 mph WSW2.4 kmh WSW 2.0 mph3.2 kmh 30.31 in1026.4 mb - 0.00 in0.0 mm 0.00 in0.0 mm
05:45 AM 42.0°F5.6°C 40.7°F4.8°C 95% 1.5 mph SW2.4 kmh SW 3.0 mph4.8 kmh 30.31 in1026.4 mb - 0.00 in0.0 mm 0.00 in0.0 mm
06:00 AM 42.3°F5.7°C 41.0°F5.0°C 95% 1.8 mph SW2.9 kmh SW 4.0 mph6.4 kmh 30.30 in1026.1 mb - 0.00 in0.0 mm 0.00 in0.0 mm
06:15 AM 42.5°F5.8°C 41.2°F5.1°C 95% 0.6 mph W1.0 kmh W 3.1 mph5.0 kmh 30.31 in1026.4 mb - 0.00 in0.0 mm 0.00 in0.0 mm
06:30 AM 42.6°F5.9°C 41.3°F5.2°C 95% 2.3 mph SW3.7 kmh SW 3.0 mph4.8 kmh 30.30 in1026.1 mb - 0.00 in0.0 mm 0.00 in0.0 mm
06:45 AM 42.9°F6.1°C 41.6°F5.3°C 95% 2.0 mph SW3.2 kmh SW 3.0 mph4.8 kmh 30.30 in1026.1 mb - 0.00 in0.0 mm 0.00 in0.0 mm
07:00 AM 43.3°F6.3°C 42.0°F5.6°C 95% 0.6 mph W1.0 kmh W 2.1 mph3.4 kmh 30.30 in1026.1 mb - 0.00 in0.0 mm 0.00 in0.0 mm
07:15 AM 43.4°F6.3°C 42.1°F5.6°C 95% 1.5 mph SW2.4 kmh SW 3.0 mph4.8 kmh 30.29 in1025.7 mb - 0.00 in0.0 mm 0.00 in0.0 mm
07:30 AM 43.9°F6.6°C 42.5°F5.8°C 95% 2.4 mph SSW3.9 kmh SSW 3.0 mph4.8 kmh 30.29 in1025.7 mb - 0.00 in0.0 mm 0.00 in0.0 mm
07:45 AM 44.1°F6.7°C 42.5°F5.8°C 94% 1.1 mph WSW1.8 kmh WSW 3.0 mph4.8 kmh 30.30 in1026.1 mb - 0.00 in0.0 mm 0.00 in0.0 mm
08:00 AM 44.5°F6.9°C 42.8°F6.0°C 94% 2.4 mph WSW3.9 kmh WSW 4.0 mph6.4 kmh 30.30 in1026.1 mb - 0.00 in0.0 mm 0.00 in0.0 mm
08:15 AM 44.8°F7.1°C 43.2°F6.2°C 94% 2.6 mph SW4.2 kmh SW 4.0 mph6.4 kmh 30.30 in1026.1 mb - 0.00 in0.0 mm 0.00 in0.0 mm
08:30 AM 45.3°F7.4°C 43.6°F6.4°C 94% Calm Calm -- 30.30 in1026.1 mb - 0.00 in0.0 mm 0.00 in0.0 mm
08:45 AM 45.7°F7.6°C 44.1°F6.7°C 94% 1.0 mph W1.6 kmh W 3.0 mph4.8 kmh 30.30 in1026.1 mb - 0.00 in0.0 mm 0.00 in0.0 mm
09:00 AM 46.5°F8.1°C 44.9°F7.2°C 94% 2.2 mph W3.5 kmh W 4.1 mph6.6 kmh 30.31 in1026.4 mb - 0.00 in0.0 mm 0.00 in0.0 mm
09:15 AM 47.0°F8.3°C 45.4°F7.4°C 94% 1.1 mph WSW1.8 kmh WSW 6.0 mph9.7 kmh 30.30 in1026.1 mb - 0.00 in0.0 mm 0.00 in0.0 mm
09:30 AM 47.3°F8.5°C 45.7°F7.6°C 94% 1.6 mph W2.6 kmh W 5.0 mph8.0 kmh 30.30 in1026.1 mb - 0.00 in0.0 mm 0.00 in0.0 mm
09:45 AM 47.7°F8.7°C 45.8°F7.7°C 93% 4.0 mph SW6.4 kmh SW 7.0 mph11.3 kmh 30.29 in1025.7 mb - 0.00 in0.0 mm 0.00 in0.0 mm
10:00 AM 48.3°F9.1°C 46.4°F8.0°C 93% 2.7 mph W4.3 kmh W 6.0 mph9.7 kmh 30.29 in1025.7 mb - 0.00 in0.0 mm 0.00 in0.0 mm
10:15 AM 48.8°F9.3°C 46.6°F8.1°C 92% 4.3 mph W6.9 kmh W 6.2 mph10.0 kmh 30.29 in1025.7 mb - 0.00 in0.0 mm 0.00 in0.0 mm
10:30 AM 49.3°F9.6°C 46.8°F8.2°C 91% 4.2 mph SW6.8 kmh SW 6.0 mph9.7 kmh 30.29 in1025.7 mb - 0.00 in0.0 mm 0.00 in0.0 mm
10:45 AM 49.7°F9.8°C 46.9°F8.3°C 90% 3.3 mph WSW5.3 kmh WSW 4.1 mph6.6 kmh 30.28 in1025.4 mb - 0.00 in0.0 mm 0.00 in0.0 mm
11:00 AM 50.1°F10.1°C 47.3°F8.5°C 90% 5.1 mph SW8.2 kmh SW 8.2 mph13.2 kmh 30.28 in1025.4 mb - 0.00 in0.0 mm 0.00 in0.0 mm
11:15 AM 50.4°F10.2°C 47.9°F8.8°C 91% 5.5 mph NW8.9 kmh NW 11.0 mph17.7 kmh 30.27 in1025.1 mb - 0.01 in0.3 mm 0.01 in0.3 mm
11:30 AM 50.3°F10.2°C 47.8°F8.8°C 91% 5.1 mph W8.2 kmh W 9.0 mph14.5 kmh 30.27 in1025.1 mb - 0.00 in0.0 mm 0.01 in0.3 mm
11:45 AM 50.1°F10.1°C 47.5°F8.6°C 91% 8.2 mph WSW13.2 kmh WSW 11.0 mph17.7 kmh 30.26 in1024.7 mb - 0.00 in0.0 mm 0.01 in0.3 mm
12:00 PM 49.9°F9.9°C 47.4°F8.6°C 91% 6.7 mph W10.8 kmh W 13.0 mph20.9 kmh 30.25 in1024.4 mb - 0.00 in0.0 mm 0.01 in0.3 mm
12:15 PM 49.9°F9.9°C 47.4°F8.6°C 91% 6.8 mph W10.9 kmh W 13.0 mph20.9 kmh 30.25 in1024.4 mb - 0.00 in0.0 mm 0.01 in0.3 mm
12:30 PM 50.1°F10.1°C 47.6°F8.7°C 91% 6.5 mph WSW10.5 kmh WSW 13.0 mph20.9 kmh 30.24 in1024.0 mb - 0.00 in0.0 mm 0.01 in0.3 mm
12:45 PM 50.2°F10.1°C 47.7°F8.7°C 91% 7.5 mph W12.1 kmh W 13.4 mph21.6 kmh 30.24 in1024.0 mb - 0.00 in0.0 mm 0.01 in0.3 mm
01:00 PM 50.3°F10.2°C 47.8°F8.8°C 91% 7.1 mph WSW11.4 kmh WSW 10.0 mph16.1 kmh 30.23 in1023.7 mb - 0.00 in0.0 mm 0.01 in0.3 mm
01:15 PM 50.5°F10.3°C 48.0°F8.9°C 91% 6.0 mph SW9.7 kmh SW 10.3 mph16.6 kmh 30.23 in1023.7 mb - 0.00 in0.0 mm 0.01 in0.3 mm
01:30 PM 50.8°F10.4°C 48.0°F8.9°C 90% 6.3 mph WSW10.1 kmh WSW 9.3 mph15.0 kmh 30.23 in1023.7 mb - 0.00 in0.0 mm 0.01 in0.3 mm
01:45 PM 51.1°F10.6°C 48.3°F9.1°C 90% 6.5 mph SW10.5 kmh SW 8.2 mph13.2 kmh 30.22 in1023.4 mb - 0.00 in0.0 mm 0.01 in0.3 mm
02:00 PM 51.3°F10.7°C 48.2°F9.0°C 89% 8.3 mph SW13.4 kmh SW 16.0 mph25.7 kmh 30.21 in1023.0 mb - 0.00 in0.0 mm 0.01 in0.3 mm
02:15 PM 51.5°F10.8°C 48.4°F9.1°C 89% 6.3 mph W10.1 kmh W 9.3 mph15.0 kmh 30.21 in1023.0 mb - 0.00 in0.0 mm 0.01 in0.3 mm
02:30 PM 51.7°F10.9°C 48.5°F9.2°C 89% 8.1 mph SW13.0 kmh SW 12.4 mph20.0 kmh 30.20 in1022.7 mb - 0.00 in0.0 mm 0.01 in0.3 mm
02:45 PM 51.8°F11.0°C 48.7°F9.3°C 89% 7.0 mph W11.3 kmh W 11.0 mph17.7 kmh 30.20 in1022.7 mb - 0.00 in0.0 mm 0.01 in0.3 mm
03:00 PM 52.0°F11.1°C 48.6°F9.2°C 88% 7.6 mph W12.2 kmh W 13.4 mph21.6 kmh 30.19 in1022.4 mb - 0.00 in0.0 mm 0.01 in0.3 mm
03:15 PM 52.1°F11.2°C 48.7°F9.3°C 88% 8.2 mph W13.2 kmh W 12.4 mph20.0 kmh 30.19 in1022.4 mb - 0.00 in0.0 mm 0.01 in0.3 mm
03:30 PM 52.2°F11.2°C 48.8°F9.3°C 88% 5.6 mph W9.0 kmh W 11.3 mph18.2 kmh 30.19 in1022.4 mb - 0.00 in0.0 mm 0.01 in0.3 mm
03:45 PM 52.2°F11.2°C 48.8°F9.3°C 88% 6.4 mph W10.3 kmh W 8.2 mph13.2 kmh 30.19 in1022.4 mb - 0.00 in0.0 mm 0.01 in0.3 mm
04:00 PM 52.3°F11.3°C 48.9°F9.4°C 88% 5.3 mph WNW8.5 kmh WNW 9.3 mph15.0 kmh 30.18 in1022.0 mb - 0.00 in0.0 mm 0.01 in0.3 mm
04:15 PM 52.4°F11.3°C 48.9°F9.4°C 88% 4.5 mph WSW7.2 kmh WSW 9.0 mph14.5 kmh 30.18 in1022.0 mb - 0.00 in0.0 mm 0.01 in0.3 mm
04:30 PM 52.4°F11.3°C 48.9°F9.4°C 88% 6.0 mph W9.7 kmh W 11.3 mph18.2 kmh 30.18 in1022.0 mb - 0.00 in0.0 mm 0.01 in0.3 mm
04:45 PM 52.4°F11.3°C 48.9°F9.4°C 88% 6.8 mph W10.9 kmh W 14.4 mph23.2 kmh 30.18 in1022.0 mb - 0.00 in0.0 mm 0.01 in0.3 mm
05:00 PM 52.4°F11.3°C 48.9°F9.4°C 88% 4.8 mph W7.7 kmh W 8.2 mph13.2 kmh 30.17 in1021.7 mb - 0.00 in0.0 mm 0.01 in0.3 mm
05:15 PM 52.3°F11.3°C 48.9°F9.4°C 88% 7.7 mph W12.4 kmh W 10.3 mph16.6 kmh 30.17 in1021.7 mb - 0.00 in0.0 mm 0.01 in0.3 mm
05:30 PM 52.3°F11.3°C 48.9°F9.4°C 88% 6.2 mph W10.0 kmh W 10.0 mph16.1 kmh 30.18 in1022.0 mb - 0.00 in0.0 mm 0.01 in0.3 mm
05:45 PM 52.4°F11.3°C 49.2°F9.6°C 89% 5.7 mph W9.2 kmh W 9.0 mph14.5 kmh 30.17 in1021.7 mb - 0.00 in0.0 mm 0.01 in0.3 mm
06:00 PM 52.4°F11.3°C 49.3°F9.6°C 89% 7.4 mph WSW11.9 kmh WSW 9.3 mph15.0 kmh 30.16 in1021.3 mb - 0.00 in0.0 mm 0.01 in0.3 mm
06:15 PM 52.5°F11.4°C 49.3°F9.6°C 89% 7.1 mph W11.4 kmh W 10.3 mph16.6 kmh 30.16 in1021.3 mb - 0.00 in0.0 mm 0.01 in0.3 mm
06:30 PM 52.6°F11.4°C 49.4°F9.7°C 89% 7.1 mph WSW11.4 kmh WSW 10.0 mph16.1 kmh 30.16 in1021.3 mb - 0.00 in0.0 mm 0.01 in0.3 mm
06:45 PM 52.5°F11.4°C 49.4°F9.7°C 89% 5.8 mph W9.3 kmh W 11.3 mph18.2 kmh 30.16 in1021.3 mb - 0.00 in0.0 mm 0.01 in0.3 mm
07:00 PM 52.6°F11.4°C 49.4°F9.7°C 89% 7.2 mph SW11.6 kmh SW 13.0 mph20.9 kmh 30.16 in1021.3 mb - 0.00 in0.0 mm 0.01 in0.3 mm
07:15 PM 52.7°F11.5°C 49.5°F9.7°C 89% 5.3 mph W8.5 kmh W 7.2 mph11.6 kmh 30.15 in1021.0 mb - 0.00 in0.0 mm 0.01 in0.3 mm
07:30 PM 52.7°F11.5°C 49.5°F9.7°C 89% 5.0 mph WSW8.0 kmh WSW 8.0 mph12.9 kmh 30.15 in1021.0 mb - 0.00 in0.0 mm 0.01 in0.3 mm
07:45 PM 52.7°F11.5°C 49.8°F9.9°C 90% 4.4 mph WNW7.1 kmh WNW 9.3 mph15.0 kmh 30.16 in1021.3 mb - 0.00 in0.0 mm 0.01 in0.3 mm
08:00 PM 52.6°F11.4°C 49.8°F9.9°C 90% 7.9 mph WNW12.7 kmh WNW 14.4 mph23.2 kmh 30.15 in1021.0 mb - 0.00 in0.0 mm 0.01 in0.3 mm
08:15 PM 52.4°F11.3°C 49.8°F9.9°C 91% 7.4 mph N11.9 kmh N 10.3 mph16.6 kmh 30.17 in1021.7 mb - 0.00 in0.0 mm 0.01 in0.3 mm
08:30 PM 49.6°F9.8°C 46.5°F8.1°C 89% 5.9 mph N9.5 kmh N 9.3 mph15.0 kmh 30.18 in1022.0 mb - 0.01 in0.3 mm 0.02 in0.5 mm
08:45 PM 48.2°F9.0°C 45.7°F7.6°C 91% 2.5 mph N4.0 kmh N 8.0 mph12.9 kmh 30.19 in1022.4 mb - 0.00 in0.0 mm 0.02 in0.5 mm
09:00 PM 47.6°F8.7°C 45.4°F7.4°C 92% 0.5 mph NE0.8 kmh NE 3.1 mph5.0 kmh 30.19 in1022.4 mb - 0.00 in0.0 mm 0.02 in0.5 mm
09:15 PM 47.2°F8.4°C 45.0°F7.2°C 92% Calm Calm -- 30.18 in1022.0 mb - 0.01 in0.3 mm 0.02 in0.5 mm
09:30 PM 47.0°F8.3°C 44.8°F7.1°C 92% 0.1 mph NE0.2 kmh NE -- 30.18 in1022.0 mb - 0.00 in0.0 mm 0.02 in0.5 mm
09:45 PM 46.8°F8.2°C 44.9°F7.2°C 93% Calm Calm -- 30.19 in1022.4 mb - 0.00 in0.0 mm 0.02 in0.5 mm
10:00 PM 46.7°F8.2°C 44.8°F7.1°C 93% Calm Calm -- 30.19 in1022.4 mb - 0.00 in0.0 mm 0.02 in0.5 mm
10:15 PM 46.6°F8.1°C 44.7°F7.1°C 93% Calm Calm -- 30.19 in1022.4 mb - 0.00 in0.0 mm 0.02 in0.5 mm
10:30 PM 46.5°F8.1°C 44.6°F7.0°C 93% 0.5 mph SW0.8 kmh SW 2.0 mph3.2 kmh 30.19 in1022.4 mb - 0.01 in0.3 mm 0.03 in0.8 mm
10:45 PM 46.4°F8.0°C 44.5°F6.9°C 93% 0.8 mph SW1.3 kmh SW 1.0 mph1.6 kmh 30.19 in1022.4 mb - 0.01 in0.3 mm 0.04 in1.0 mm
11:00 PM 46.4°F8.0°C 44.5°F6.9°C 93% Calm Calm -- 30.18 in1022.0 mb - 0.01 in0.3 mm 0.04 in1.0 mm
11:15 PM 46.3°F7.9°C 44.4°F6.9°C 93% Calm Calm -- 30.19 in1022.4 mb - 0.00 in0.0 mm 0.04 in1.0 mm
11:30 PM 46.2°F7.9°C 44.3°F6.8°C 93% Calm Calm -- 30.19 in1022.4 mb - 0.00 in0.0 mm 0.04 in1.0 mm
11:45 PM 46.1°F7.8°C 44.2°F6.8°C 93% Calm Calm 1.0 mph1.6 kmh 30.19 in1022.4 mb - 0.00 in0.0 mm 0.04 in1.0 mm